Devon, Kansas
Current Conditions -  °F | °C
As of 12:55 AM on Sunday 26 Oct 2014 (Local Time) from KPTS Reporting Station
Clear Clear  
Wind Chill: 64°   Ceiling: Unl
Heat Index: 64°   Visibility: 7mi
Dew Point: 64°   Wind: 5mph
Humidity: 100%   Direction: 170°S
Pressure: 29.97"   Gusts: NA
Location:  37.8381°N, 94.721°W
Report Text: KPTS 260555Z AUTO 17004KT 7SM CLR 18/18 A2997 RMK AO2 T01770178
Loading
Personal Weather Stations






























Interactive Weather Map
Tropical Storm Tracking
New forecast layout! Learn more

10-Day Weather Forecast

Advertisements
Track Severe Weather on mobile